This demonstration page uses our WeatherBlox Daily Observations layout. Learn more.

36.17497, -115.13722

Hourly Observations for July 8, 2020

Temp ( °F °C ) Dew Point ( °F °C ) Humidity (%) Winds ( mph kmh ) Pressure ( in mb ) Visibility ( mi km ) Precip ( " mm )
12:53 am 00:53 Clear 92 33.3 23 -5 8 8 SW 14 22 29.7 1006 10 16.0934 0 0
1:53 am 01:53 Clear 89 31.7 25 -3.9 10 10 S 10 17 29.7 1006 10 16.0934 0 0
2:53 am 02:53 Clear 88 31.1 26 -3.3 10 10 SSW 8 13 29.7 1006 10 16.0934 0 0
3:53 am 03:53 Clear 81 27.2 27 -2.8 14 14 NNW 6 9 29.72 1007 10 16.0934 0 0
4:53 am 04:53 Clear 78 25.6 25 -3.9 14 14 NW 3 6 29.74 1007 10 16.0934 0 0
5:53 am 05:53 Sunny 76 24.4 24 -4.4 14 14 NNW 7 11 29.76 1008 10 16.0934 0 0
6:53 am 06:53 Sunny 79 26.1 26 -3.3 14 14 NW 5 7 29.78 1008 10 16.0934 0 0
7:53 am 07:53 Sunny 84 28.9 31 -0.6 15 15 NNW 5 7 29.79 1009 10 16.0934 0 0
8:53 am 08:53 Sunny 87 30.6 31 -0.6 13 13 VRB 3 6 29.8 1009 10 16.0934 0 0
9:53 am 09:53 Sunny 91 32.8 30 -1.1 11 11 Calm 29.8 1009 10 16.0934 0 0
10:53 am 10:53 Sunny 95 35 25 -3.9 8 8 VRB 3 6 29.79 1009 10 16.0934 0 0
11:53 am 11:53 Sunny 99 37.2 13 -10.6 4 4 S 10 17 29.78 1009 10 16.0934 0 0
12:53 pm 12:53 Sunny 101 38.3 12 -11.1 4 4 S 15 24 29.76 1008 10 16.0934 0 0
1:53 pm 13:53 Sunny 102 38.9 9 -12.8 3 3 SSE 12 19 29.74 1007 10 16.0934 0 0
2:53 pm 14:53 Sunny 104 40 7 -13.9 3 3 S 13 20 29.71 1006 10 16.0934 0 0
3:53 pm 15:53 Sunny 105 40.6 2 -16.7 2 2 SSW 16 26 29.69 1006 10 16.0934 0 0
4:53 pm 16:53 Sunny 105 40.6 1 -17.2 2 2 SSW 17 28 29.67 1005 10 16.0934 0 0
5:53 pm 17:53 Sunny 103 39.4 5 -15 3 3 SSW 15 24 29.67 1005 10 16.0934 0 0
6:53 pm 18:53 Sunny 102 38.9 9 -12.8 3 3 SSW 16 26 29.67 1005 10 16.0934 0 0
7:53 pm 19:53 Sunny 99 37.2 13 -10.6 4 4 SW 17 28 29.67 1005 10 16.0934 0 0
8:53 pm 20:53 Clear 96 35.6 16 -8.9 5 5 S 9 15 29.68 1005 10 16.0934 0 0
9:53 pm 21:53 Clear 94 34.4 15 -9.4 5 5 S 10 17 29.7 1006 10 16.0934 0 0
10:53 pm 22:53 Clear 92 33.3 16 -8.9 6 6 SSW 13 20 29.7 1006 10 16.0934 0 0
11:53 pm 23:53 Clear 91 32.8 17 -8.3 6 6 SSW 8 13 29.71 1006 10 16.0934 0 0

Powered by AerisWeather